RJOI/IWA METAR and TAF weather

Enter ICAO airport designator
Station Type Date Time Source
RJOI METAR 2019/02/17 15:55 UTC NOAA

RJOI 171555Z 30007KT 9999 FEW220 03/M03 A3025 RMK SLP243 T00281033


Station Type Date Time Source
RJOI Decoded METAR 2019/02/17 15:55 UTC NOAA

MCAS IWAKUNI,JAPAN, JA, Japan (RJOI) 34-09N 132-14E 5M
Feb 17, 2019 - 10:55 AM EST / 2019.02.17 1555 UTC
Wind: from the WNW (300 degrees) at 8 MPH (7 KT):0
Visibility: greater than 7 mile(s):0
Sky conditions: mostly clear
Temperature: 37.0 F (2.8 C)
Dew Point: 26.1 F (-3.3 C)
Relative Humidity: 64%
Pressure (altimeter): 30.25 in. Hg (1024 hPa)
ob: RJOI 171555Z 30007KT 9999 FEW220 03/M03 A3025 RMK SLP243 T00281033
cycle: 16

Station Type Date Time Source
RJOI TAF 2019/02/17 13:54 UTC NOAA

TAF TAF RJOI 1713/1813 31007KT 9999 FEW030 SCT050 SCT220 520909 521804 QNH3019INS
FM171500 VRB06KT FEW030 FEW050 SCT220 520909 541809 QNH3023INS
FM172000 33008KT FEW030 FEW050 SCT220 520909 541809 QNH3024INS
FM180000 04010KT FEW030 FEW080 SCT130 BKN200 520909 541809 QNH3025INS
FM180400 13010KT FEW030 SCT080 SCT130 BKN200 520909 541809 QNH3023INS
TEMPO 1804/1810 13012G18KT FEW030 SCT080 SCT120 BKN220
FM181000 04010KT FEW018 SCT030 BKN080 BKN120 OVC220 640809 641705 540909 541809 QNH3027INS
TEMPO 1810/1813 04012G18KT T01/1721Z T12/1806Z


Example: see airport list